createdAt,value
2022-10-15T00:01:12.073Z,73.99
2022-10-15T00:03:40.764Z,73.98
2022-10-15T00:06:14.223Z,73.88
2022-10-15T00:08:42.042Z,73.73
2022-10-15T00:11:12.426Z,73.64
2022-10-15T00:13:40.016Z,73.65
2022-10-15T00:16:20.639Z,73.61
2022-10-15T00:18:51.339Z,73.54
2022-10-15T00:21:19.921Z,73.55
2022-10-15T00:23:47.707Z,73.62
2022-10-15T00:26:18.449Z,73.67
2022-10-15T00:28:46.739Z,73.67
2022-10-15T00:31:16.460Z,73.76
2022-10-15T00:33:48.246Z,73.71
2022-10-15T00:36:18.016Z,73.81
2022-10-15T00:38:45.360Z,73.86
2022-10-15T00:41:15.699Z,74.02
2022-10-15T00:43:51.245Z,74.24
2022-10-15T00:46:25.387Z,74.37
2022-10-15T00:48:55.680Z,74.45
2022-10-15T00:51:25.427Z,74.48
2022-10-15T00:53:52.678Z,74.55
2022-10-15T00:56:21.514Z,74.55
2022-10-15T00:58:50.427Z,74.62
2022-10-15T01:01:17.912Z,74.69
2022-10-15T01:03:45.479Z,74.57
2022-10-15T01:06:12.683Z,74.54
2022-10-15T01:08:41.249Z,74.40
2022-10-15T01:11:33.484Z,74.49
2022-10-15T01:14:11.722Z,74.51
2022-10-15T01:16:48.777Z,74.54
2022-10-15T01:19:25.686Z,74.52
2022-10-15T01:21:56.605Z,74.50
2022-10-15T01:24:45.574Z,74.46
2022-10-15T01:27:22.451Z,74.63
2022-10-15T01:30:19.288Z,74.66
2022-10-15T01:33:04.589Z,74.79
2022-10-15T01:35:35.533Z,74.97
2022-10-15T01:38:24.435Z,75.14
2022-10-15T01:40:55.582Z,75.26
2022-10-15T01:43:27.082Z,75.23
2022-10-15T01:46:35.170Z,75.40
2022-10-15T01:49:11.447Z,75.47
2022-10-15T01:51:45.387Z,75.56
2022-10-15T01:54:18.694Z,75.70
2022-10-15T01:56:51.430Z,75.52
2022-10-15T01:59:24.314Z,75.57
2022-10-15T02:01:54.019Z,75.60
2022-10-15T02:04:27.352Z,75.70
2022-10-15T02:07:10.578Z,75.67
2022-10-15T02:10:14.885Z,75.79
2022-10-15T02:13:02.984Z,75.98
2022-10-15T02:15:38.655Z,76.18
2022-10-15T02:18:12.739Z,76.44
2022-10-15T02:20:46.769Z,76.73
2022-10-15T02:23:20.722Z,76.77
2022-10-15T02:25:50.196Z,76.75
2022-10-15T02:28:18.068Z,76.76
2022-10-15T02:30:47.755Z,76.62
2022-10-15T02:33:16.138Z,76.46
2022-10-15T02:35:44.822Z,76.20
2022-10-15T02:38:14.802Z,75.93
2022-10-15T02:40:43.614Z,75.67
2022-10-15T02:43:13.343Z,75.44
2022-10-15T02:45:41.133Z,75.19
2022-10-15T02:48:08.380Z,75.07
2022-10-15T02:50:35.687Z,75.07
2022-10-15T02:53:03.029Z,74.94
2022-10-15T02:55:30.297Z,74.68
2022-10-15T02:57:57.657Z,74.37
2022-10-15T03:00:25.226Z,74.20
2022-10-15T03:02:52.295Z,74.00
2022-10-15T03:05:20.122Z,73.97
2022-10-15T03:07:47.363Z,73.82
2022-10-15T03:10:15.115Z,73.80
2022-10-15T03:12:42.729Z,73.81
2022-10-15T03:15:11.348Z,73.74
2022-10-15T03:17:38.711Z,73.69
2022-10-15T03:20:06.384Z,73.76
2022-10-15T03:22:35.533Z,73.72
2022-10-15T03:25:03.088Z,73.74
2022-10-15T03:27:30.282Z,73.74
2022-10-15T03:29:57.533Z,73.70
2022-10-15T03:32:26.155Z,73.80
2022-10-15T03:34:53.822Z,74.02
2022-10-15T03:37:21.396Z,74.18
2022-10-15T03:39:49.477Z,74.44
2022-10-15T03:42:18.589Z,74.34
2022-10-15T03:44:46.444Z,74.33
2022-10-15T03:47:15.644Z,74.52
2022-10-15T03:49:44.802Z,74.53
2022-10-15T03:52:12.856Z,74.68
2022-10-15T03:54:40.693Z,74.78
2022-10-15T03:57:08.227Z,74.99
2022-10-15T03:59:38.601Z,74.90
2022-10-15T04:02:06.177Z,74.92
2022-10-15T04:04:33.597Z,75.21
2022-10-15T04:07:00.929Z,75.45
2022-10-15T04:09:28.512Z,75.38
2022-10-15T04:11:57.591Z,75.37
2022-10-15T04:14:25.036Z,75.55
2022-10-15T04:16:52.258Z,75.73
2022-10-15T04:19:21.278Z,75.98
2022-10-15T04:21:50.280Z,76.12
2022-10-15T04:24:19.629Z,76.33
2022-10-15T04:26:46.769Z,76.38
2022-10-15T04:29:13.938Z,76.39
2022-10-15T04:31:41.768Z,76.43
2022-10-15T04:34:09.021Z,76.39
2022-10-15T04:36:36.771Z,76.52
2022-10-15T04:39:08.630Z,76.57
2022-10-15T04:41:37.602Z,76.56
2022-10-15T04:44:06.745Z,76.54
2022-10-15T04:46:34.032Z,76.55
2022-10-15T04:49:03.138Z,76.44
2022-10-15T04:51:30.342Z,76.37
2022-10-15T04:54:08.153Z,76.22
2022-10-15T04:56:36.184Z,75.89
2022-10-15T04:59:08.223Z,75.76
2022-10-15T05:01:37.452Z,75.83
2022-10-15T05:04:06.546Z,75.55
2022-10-15T05:06:34.309Z,75.59
2022-10-15T05:09:03.402Z,75.68
2022-10-15T05:11:35.291Z,75.65
2022-10-15T05:14:02.723Z,75.70
2022-10-15T05:16:31.043Z,75.78
2022-10-15T05:19:01.766Z,75.89
2022-10-15T05:21:30.874Z,75.85
2022-10-15T05:24:00.166Z,76.02
2022-10-15T05:26:46.990Z,75.96
2022-10-15T05:29:15.101Z,75.96
2022-10-15T05:31:42.638Z,76.06
2022-10-15T05:34:14.553Z,76.19
2022-10-15T05:36:43.793Z,76.20
2022-10-15T05:39:11.621Z,76.11
2022-10-15T05:41:43.146Z,76.28
2022-10-15T05:44:10.396Z,76.44
2022-10-15T05:46:37.769Z,76.59
2022-10-15T05:49:05.171Z,76.70
2022-10-15T05:51:34.239Z,76.76
2022-10-15T05:54:03.297Z,76.86
2022-10-15T05:56:30.803Z,77.02
2022-10-15T05:58:58.050Z,77.16
2022-10-15T06:01:26.994Z,77.24
2022-10-15T06:03:54.157Z,77.34
2022-10-15T06:06:23.974Z,77.27
2022-10-15T06:08:51.232Z,77.30
2022-10-15T06:11:18.724Z,77.16
2022-10-15T06:13:46.297Z,77.08
2022-10-15T06:16:17.917Z,77.07
2022-10-15T06:18:43.952Z,76.89
2022-10-15T06:21:12.115Z,76.65
2022-10-15T06:23:39.582Z,76.79
2022-10-15T06:26:09.096Z,76.74
2022-10-15T06:28:37.153Z,76.62
2022-10-15T06:31:05.804Z,76.62
2022-10-15T06:33:33.698Z,76.42
2022-10-15T06:36:02.748Z,76.33
2022-10-15T06:38:30.072Z,76.22
2022-10-15T06:40:57.114Z,76.16
2022-10-15T06:43:24.532Z,76.13
2022-10-15T06:45:51.755Z,75.89
2022-10-15T06:48:19.145Z,75.79
2022-10-15T06:50:46.407Z,75.74
2022-10-15T06:53:13.619Z,75.46
2022-10-15T06:55:40.775Z,75.32
2022-10-15T06:58:07.872Z,75.16
2022-10-15T07:03:06.107Z,74.80
2022-10-15T07:05:33.926Z,74.65
2022-10-15T07:08:01.377Z,74.53
2022-10-15T07:10:29.552Z,74.21
2022-10-15T07:13:01.475Z,74.27
2022-10-15T07:15:29.349Z,73.99
2022-10-15T07:17:58.699Z,73.53
2022-10-15T07:20:26.584Z,73.19
2022-10-15T07:23:01.182Z,73.17
2022-10-15T07:25:34.014Z,73.45
2022-10-15T07:28:01.133Z,73.16
2022-10-15T07:30:28.530Z,73.60
2022-10-15T07:32:56.931Z,73.54
2022-10-15T07:35:25.543Z,73.09
2022-10-15T07:37:52.742Z,72.90
2022-10-15T07:40:20.231Z,72.00
2022-10-15T07:42:54.693Z,72.10
2022-10-15T07:45:22.860Z,70.93
2022-10-15T07:47:50.660Z,71.37
2022-10-15T07:50:18.195Z,70.99
2022-10-15T07:52:47.104Z,70.60
2022-10-15T07:55:14.227Z,69.58
2022-10-15T07:57:41.322Z,70.13
2022-10-15T08:00:09.314Z,68.52
2022-10-15T08:02:43.376Z,69.02
2022-10-15T08:05:10.556Z,69.61
2022-10-15T08:07:37.906Z,68.43
2022-10-15T08:10:08.529Z,68.54
2022-10-15T08:12:36.613Z,68.65
2022-10-15T08:15:04.136Z,67.40
2022-10-15T08:17:31.803Z,67.99
2022-10-15T08:19:59.052Z,68.04
2022-10-15T08:22:26.634Z,66.13
2022-10-15T08:24:55.885Z,66.09
2022-10-15T08:27:23.108Z,64.99
2022-10-15T08:29:52.073Z,65.07
2022-10-15T08:32:19.506Z,64.37
2022-10-15T08:34:46.814Z,64.28
2022-10-15T08:39:41.997Z,62.10
2022-10-15T08:42:21.553Z,62.83
2022-10-15T08:44:55.061Z,63.70
2022-10-15T08:47:35.073Z,62.85
2022-10-15T08:50:08.435Z,62.46
2022-10-15T08:52:42.298Z,60.93
2022-10-15T08:55:14.792Z,60.19
2022-10-15T08:57:51.503Z,60.06
2022-10-15T09:00:24.329Z,61.03
2022-10-15T09:03:04.266Z,59.22
2022-10-15T09:05:44.270Z,59.83
2022-10-15T09:08:33.043Z,60.00
2022-10-15T09:11:06.947Z,58.18
2022-10-15T09:13:39.842Z,58.22
2022-10-15T09:16:27.886Z,57.54
2022-10-15T09:18:55.940Z,58.05
2022-10-15T09:21:25.376Z,59.50
2022-10-15T09:23:58.891Z,60.33
2022-10-15T09:26:46.490Z,60.01
2022-10-15T09:29:17.557Z,60.70
2022-10-15T09:32:11.361Z,60.38
2022-10-15T09:34:42.252Z,60.13
2022-10-15T09:37:15.586Z,61.06
2022-10-15T09:39:57.529Z,61.71
2022-10-15T09:42:30.364Z,61.60
2022-10-15T09:45:00.175Z,61.45
2022-10-15T09:47:30.016Z,60.89
2022-10-15T09:50:01.446Z,60.75
2022-10-15T09:52:55.308Z,60.09
2022-10-15T09:55:34.952Z,60.59
2022-10-15T09:58:08.081Z,60.37
2022-10-15T10:00:56.921Z,60.56
2022-10-15T10:03:27.169Z,59.98
2022-10-15T10:06:09.730Z,59.00
2022-10-15T10:08:50.894Z,57.24
2022-10-15T10:11:20.802Z,58.43
2022-10-15T10:13:51.441Z,57.61
2022-10-15T10:16:20.427Z,59.27
2022-10-15T10:19:13.895Z,57.76
2022-10-15T10:21:42.905Z,58.58
2022-10-15T10:24:29.819Z,59.49
2022-10-15T10:27:01.095Z,60.24
2022-10-15T10:29:34.251Z,60.15
2022-10-15T10:31:58.728Z,59.26
2022-10-15T10:34:31.832Z,58.74
2022-10-15T10:37:04.208Z,57.69
2022-10-15T10:39:32.850Z,58.03
2022-10-15T10:42:05.504Z,58.09
2022-10-15T10:44:43.648Z,57.88
2022-10-15T10:47:17.019Z,55.68
2022-10-15T10:49:46.456Z,55.02
2022-10-15T10:52:36.846Z,56.46
2022-10-15T10:55:07.613Z,56.59
2022-10-15T10:57:44.703Z,57.27
2022-10-15T11:00:15.765Z,55.90
2022-10-15T11:02:44.846Z,56.26
2022-10-15T11:05:12.691Z,55.08
2022-10-15T11:07:52.387Z,56.37
2022-10-15T11:10:25.934Z,56.70
2022-10-15T11:13:15.192Z,55.74
2022-10-15T11:16:10.692Z,55.67
2022-10-15T11:18:59.476Z,55.53
2022-10-15T11:21:55.058Z,54.79
2022-10-15T11:24:49.239Z,55.07
2022-10-15T11:27:31.507Z,54.07
2022-10-15T11:30:05.078Z,54.23
2022-10-15T11:33:06.355Z,54.59
2022-10-15T11:35:51.587Z,55.08
2022-10-15T11:38:22.767Z,54.36
2022-10-15T11:41:08.945Z,55.12
2022-10-15T11:43:49.060Z,52.85
2022-10-15T11:46:36.962Z,53.86
2022-10-15T11:52:21.823Z,55.03
2022-10-15T11:55:13.796Z,54.66
2022-10-15T11:57:42.226Z,54.72
2022-10-15T12:00:18.347Z,54.04
2022-10-15T12:02:48.329Z,54.61
2022-10-15T12:05:27.089Z,54.51
2022-10-15T12:07:55.217Z,53.60
2022-10-15T12:10:47.377Z,54.72
2022-10-15T12:13:30.339Z,54.10
2022-10-15T12:16:01.160Z,54.50
2022-10-15T12:18:35.092Z,52.70
2022-10-15T12:21:02.306Z,53.87
2022-10-15T12:23:40.909Z,54.75
2022-10-15T12:26:31.941Z,52.04
2022-10-15T12:29:04.029Z,53.14
2022-10-15T12:31:46.364Z,53.08
2022-10-15T12:34:25.577Z,51.97
2022-10-15T12:37:01.651Z,52.49
2022-10-15T12:41:59.028Z,51.11
2022-10-15T12:44:31.062Z,50.87
2022-10-15T12:46:58.907Z,50.67
2022-10-15T12:49:30.489Z,50.73
2022-10-15T12:51:59.706Z,49.05
2022-10-15T12:54:46.308Z,50.08
2022-10-15T12:57:35.573Z,50.89
2022-10-15T13:00:23.051Z,50.96
2022-10-15T13:02:52.356Z,50.30
2022-10-15T13:05:30.697Z,50.89
2022-10-15T13:08:00.258Z,49.18
2022-10-15T13:10:36.928Z,48.38
2022-10-15T13:13:07.731Z,49.21
2022-10-15T13:15:34.885Z,49.85
2022-10-15T13:18:13.271Z,49.97
2022-10-15T13:20:42.858Z,49.95
2022-10-15T13:23:31.012Z,47.83
2022-10-15T13:26:15.618Z,47.87
2022-10-15T13:28:43.502Z,49.00
2022-10-15T13:31:31.214Z,49.72
2022-10-15T13:34:04.917Z,49.75
2022-10-15T13:36:33.846Z,50.03
2022-10-15T13:39:06.490Z,49.38
2022-10-15T13:41:36.562Z,48.51
2022-10-15T13:44:04.481Z,50.17
2022-10-15T13:46:34.135Z,49.98
2022-10-15T13:49:04.201Z,49.72
2022-10-15T13:51:34.904Z,49.05
2022-10-15T13:54:02.671Z,49.99
2022-10-15T13:56:31.722Z,49.47
2022-10-15T13:59:02.287Z,49.00
2022-10-15T14:01:31.171Z,49.94
2022-10-15T14:04:00.118Z,48.11
2022-10-15T14:06:32.988Z,48.50
2022-10-15T14:09:03.675Z,49.75
2022-10-15T14:11:32.779Z,49.33
2022-10-15T14:13:59.875Z,50.10
2022-10-15T14:16:36.719Z,50.17
2022-10-15T14:19:09.541Z,48.53
2022-10-15T14:21:40.549Z,48.48
2022-10-15T14:24:14.350Z,48.52
2022-10-15T14:26:42.606Z,48.58
2022-10-15T14:29:22.531Z,48.75
2022-10-15T14:31:49.825Z,47.03
2022-10-15T14:34:38.331Z,47.80
2022-10-15T14:37:28.924Z,48.69
2022-10-15T14:40:11.853Z,48.40
2022-10-15T14:42:44.839Z,48.85
2022-10-15T14:45:22.093Z,48.88
2022-10-15T14:47:52.942Z,49.01
2022-10-15T14:50:21.532Z,50.11
2022-10-15T14:52:51.385Z,49.13
2022-10-15T14:55:32.724Z,49.08
2022-10-15T14:58:08.083Z,49.49
2022-10-15T15:00:43.217Z,49.84
2022-10-15T15:03:17.079Z,49.62
2022-10-15T15:05:53.247Z,49.52
2022-10-15T15:08:21.444Z,49.79
2022-10-15T15:10:50.317Z,50.98
2022-10-15T15:13:22.913Z,51.62
2022-10-15T15:15:49.997Z,52.08
2022-10-15T15:18:17.486Z,52.67
2022-10-15T15:20:47.609Z,53.24
2022-10-15T15:23:21.386Z,54.13
2022-10-15T15:25:48.970Z,54.54
2022-10-15T15:28:20.007Z,55.37
2022-10-15T15:30:56.018Z,56.06
2022-10-15T15:33:23.332Z,56.52
2022-10-15T15:35:53.585Z,56.89
2022-10-15T15:38:23.199Z,57.21
2022-10-15T15:40:50.609Z,58.16
2022-10-15T15:43:18.857Z,58.61
2022-10-15T15:45:46.983Z,58.86
2022-10-15T15:48:14.092Z,59.45
2022-10-15T15:50:41.358Z,59.91
2022-10-15T15:53:08.848Z,60.23
2022-10-15T15:55:36.111Z,60.73
2022-10-15T15:58:03.360Z,61.08
2022-10-15T16:00:30.426Z,61.34
2022-10-15T16:02:58.218Z,61.73
2022-10-15T16:05:25.573Z,62.21
2022-10-15T16:07:52.694Z,62.08
2022-10-15T16:10:19.956Z,62.49
2022-10-15T16:12:47.009Z,62.81
2022-10-15T16:15:15.350Z,63.61
2022-10-15T16:17:43.322Z,63.54
2022-10-15T16:20:11.166Z,63.91
2022-10-15T16:22:38.581Z,64.37
2022-10-15T16:25:06.796Z,64.65
2022-10-15T16:27:34.187Z,64.89
2022-10-15T16:30:03.392Z,65.00
2022-10-15T16:32:30.836Z,65.33
2022-10-15T16:34:58.097Z,65.72
2022-10-15T16:37:26.319Z,66.01
2022-10-15T16:39:53.898Z,66.17
2022-10-15T16:42:21.138Z,66.26
2022-10-15T16:44:48.373Z,66.54
2022-10-15T16:47:15.600Z,66.76
2022-10-15T16:49:42.752Z,66.75
2022-10-15T16:52:10.371Z,66.97
2022-10-15T16:54:37.878Z,67.05
2022-10-15T16:57:05.269Z,67.23
2022-10-15T16:59:32.451Z,67.26
2022-10-15T17:02:00.800Z,67.25
2022-10-15T17:04:28.159Z,67.33
2022-10-15T17:06:55.360Z,67.34
2022-10-15T17:09:23.127Z,67.37
2022-10-15T17:11:50.290Z,67.37
2022-10-15T17:14:18.100Z,67.33
2022-10-15T17:16:50.651Z,67.41
2022-10-15T17:19:21.068Z,67.45
2022-10-15T17:21:48.084Z,67.88
2022-10-15T17:24:16.696Z,67.74
2022-10-15T17:26:45.074Z,67.93
2022-10-15T17:29:16.863Z,67.82
2022-10-15T17:31:43.932Z,68.07
2022-10-15T17:34:11.442Z,68.01
2022-10-15T17:36:43.353Z,68.26
2022-10-15T17:39:20.023Z,68.17
2022-10-15T17:41:47.200Z,68.11
2022-10-15T17:44:14.385Z,68.36
2022-10-15T17:46:41.879Z,68.35
2022-10-15T17:49:10.636Z,68.55
2022-10-15T17:51:39.422Z,68.61
2022-10-15T17:54:06.557Z,68.57
2022-10-15T17:56:35.938Z,68.53
2022-10-15T17:59:05.609Z,68.53
2022-10-15T18:01:57.206Z,68.30
2022-10-15T18:04:10.774Z,68.23
2022-10-15T18:06:38.020Z,68.00
2022-10-15T18:09:05.178Z,67.98
2022-10-15T18:11:34.097Z,67.97
2022-10-15T18:14:01.567Z,67.74
2022-10-15T18:16:28.808Z,67.70
2022-10-15T18:18:56.143Z,67.49
2022-10-15T18:21:25.062Z,67.56
2022-10-15T18:23:52.435Z,67.46
2022-10-15T18:26:20.983Z,67.39
2022-10-15T18:28:50.544Z,67.30
2022-10-15T18:31:18.285Z,67.48
2022-10-15T18:33:48.388Z,67.21
2022-10-15T18:36:18.450Z,67.27
2022-10-15T18:38:45.661Z,67.15
2022-10-15T18:41:18.511Z,67.44
2022-10-15T18:43:54.691Z,67.37
2022-10-15T18:46:22.163Z,67.67
2022-10-15T18:48:49.454Z,67.79
2022-10-15T18:51:17.632Z,68.13
2022-10-15T18:53:44.938Z,68.22
2022-10-15T18:56:13.308Z,68.46
2022-10-15T18:58:44.000Z,68.53
2022-10-15T19:01:32.406Z,68.81
2022-10-15T19:04:02.616Z,68.69
2022-10-15T19:06:32.176Z,68.56
2022-10-15T19:09:00.427Z,69.28
2022-10-15T19:11:29.723Z,69.10
2022-10-15T19:14:00.016Z,69.29
2022-10-15T19:16:28.146Z,69.45
2022-10-15T19:18:57.824Z,69.48
2022-10-15T19:21:24.926Z,69.29
2022-10-15T19:23:52.048Z,69.73
2022-10-15T19:26:19.421Z,69.90
2022-10-15T19:28:47.392Z,69.98
2022-10-15T19:31:23.429Z,69.84
2022-10-15T19:33:50.767Z,69.97
2022-10-15T19:36:22.792Z,70.01
2022-10-15T19:38:50.343Z,69.73
2022-10-15T19:41:18.502Z,69.90
2022-10-15T19:43:45.891Z,69.88
2022-10-15T19:46:13.468Z,69.77
2022-10-15T19:48:41.832Z,69.61
2022-10-15T19:51:09.000Z,69.71
2022-10-15T19:53:36.094Z,69.75
2022-10-15T19:56:08.268Z,69.88
2022-10-15T19:58:35.874Z,69.89
2022-10-15T20:01:05.350Z,69.87
2022-10-15T20:03:33.389Z,69.82
2022-10-15T20:06:07.036Z,69.80
2022-10-15T20:08:34.638Z,69.80
2022-10-15T20:11:06.940Z,69.58
2022-10-15T20:13:34.706Z,69.45
2022-10-15T20:16:04.971Z,69.47
2022-10-15T20:18:32.382Z,69.43
2022-10-15T20:20:59.768Z,69.38
2022-10-15T20:23:28.099Z,69.38
2022-10-15T20:25:55.444Z,69.40
2022-10-15T20:28:22.443Z,69.38
2022-10-15T20:30:51.624Z,69.39
2022-10-15T20:33:18.918Z,69.45
2022-10-15T20:35:47.952Z,69.36
2022-10-15T20:38:15.353Z,69.59
2022-10-15T20:40:42.630Z,69.67
2022-10-15T20:43:10.002Z,69.69
2022-10-15T20:45:42.439Z,69.73
2022-10-15T20:48:13.331Z,69.68
2022-10-15T20:50:41.534Z,69.67
2022-10-15T20:53:08.853Z,69.79
2022-10-15T20:55:35.930Z,69.74
2022-10-15T20:58:03.683Z,69.96
2022-10-15T21:00:30.966Z,70.00
2022-10-15T21:02:58.254Z,70.09
2022-10-15T21:05:25.505Z,70.26
2022-10-15T21:07:52.775Z,70.30
2022-10-15T21:10:19.921Z,70.42
2022-10-15T21:12:46.993Z,70.43
2022-10-15T21:15:14.144Z,70.44
2022-10-15T21:17:41.476Z,70.46
2022-10-15T21:20:09.063Z,70.51
2022-10-15T21:22:36.285Z,70.57
2022-10-15T21:25:05.057Z,70.65
2022-10-15T21:27:32.360Z,70.67
2022-10-15T21:29:59.858Z,70.74
2022-10-15T21:32:27.377Z,70.70
2022-10-15T21:34:54.477Z,70.69
2022-10-15T21:37:21.578Z,70.64
2022-10-15T21:39:48.782Z,70.76
2022-10-15T21:42:15.878Z,70.86
2022-10-15T21:44:43.226Z,70.91
2022-10-15T21:47:14.359Z,70.83
2022-10-15T21:49:41.106Z,70.86
2022-10-15T21:52:08.479Z,70.85
2022-10-15T21:54:35.527Z,71.06
2022-10-15T21:57:02.998Z,71.34
2022-10-15T21:59:30.300Z,71.24
2022-10-15T22:01:57.689Z,71.31
2022-10-15T22:04:24.965Z,71.55
2022-10-15T22:06:52.089Z,71.72
2022-10-15T22:09:19.373Z,71.75
2022-10-15T22:11:46.532Z,71.87
2022-10-15T22:14:13.880Z,71.71
2022-10-15T22:16:42.056Z,71.72
2022-10-15T22:19:12.913Z,71.84
2022-10-15T22:21:40.064Z,71.49
2022-10-15T22:24:12.188Z,71.62
2022-10-15T22:26:41.979Z,71.52
2022-10-15T22:29:12.800Z,71.69
2022-10-15T22:31:40.100Z,71.64
2022-10-15T22:34:07.541Z,71.56
2022-10-15T22:36:34.639Z,71.64
2022-10-15T22:39:07.034Z,71.55
2022-10-15T22:41:39.224Z,71.53
2022-10-15T22:44:07.271Z,71.75
2022-10-15T22:46:36.610Z,71.74
2022-10-15T22:49:04.852Z,71.65
2022-10-15T22:51:32.032Z,71.34
2022-10-15T22:53:59.842Z,71.02
2022-10-15T22:56:28.035Z,70.83
2022-10-15T22:58:56.708Z,70.57
2022-10-15T23:01:29.496Z,70.55
2022-10-15T23:04:00.953Z,70.51
2022-10-15T23:06:28.754Z,70.38
2022-10-15T23:08:57.572Z,70.39
2022-10-15T23:11:27.552Z,70.55
2022-10-15T23:13:57.541Z,70.61
2022-10-15T23:16:28.619Z,70.67
2022-10-15T23:18:59.519Z,70.65
2022-10-15T23:21:29.527Z,70.63
2022-10-15T23:23:56.993Z,70.68
2022-10-15T23:26:24.218Z,70.58
2022-10-15T23:28:56.006Z,70.67
2022-10-15T23:31:32.029Z,70.93
2022-10-15T23:34:00.295Z,71.03
2022-10-15T23:36:28.925Z,71.22
2022-10-15T23:38:58.540Z,71.03
2022-10-15T23:41:27.506Z,71.09
2022-10-15T23:43:55.239Z,71.07
2022-10-15T23:46:22.923Z,70.86
2022-10-15T23:48:50.183Z,71.11
2022-10-15T23:51:20.450Z,71.18
2022-10-15T23:53:47.836Z,71.49
2022-10-15T23:56:15.535Z,71.35
2022-10-15T23:58:42.695Z,71.29
